createdAt,value
2019-03-26T00:02:05.378Z,4.97
2019-03-26T00:06:08.989Z,3.83
2019-03-26T00:10:12.603Z,4.55
2019-03-26T00:14:16.320Z,5.28
2019-03-26T00:18:19.863Z,5.00
2019-03-26T00:22:23.418Z,5.45
2019-03-26T00:26:27.054Z,5.42
2019-03-26T00:30:30.674Z,6.20
2019-03-26T00:34:34.280Z,6.55
2019-03-26T00:38:37.908Z,6.70
2019-03-26T00:42:41.613Z,8.18
2019-03-26T00:46:45.327Z,7.80
2019-03-26T00:50:48.949Z,8.68
2019-03-26T00:54:52.501Z,8.05
2019-03-26T00:58:56.272Z,9.03
2019-03-26T01:02:59.814Z,7.65
2019-03-26T01:07:03.703Z,7.10
2019-03-26T01:11:07.320Z,9.80
2019-03-26T01:15:10.940Z,7.75
2019-03-26T01:19:14.645Z,6.72
2019-03-26T01:23:18.264Z,5.90
2019-03-26T01:27:21.874Z,6.00
2019-03-26T01:31:25.486Z,7.85
2019-03-26T01:35:29.098Z,7.08
2019-03-26T01:39:32.713Z,6.17
2019-03-26T01:43:36.335Z,6.47
2019-03-26T01:47:39.944Z,6.47
2019-03-26T01:51:43.556Z,5.53
2019-03-26T01:55:47.271Z,4.90
2019-03-26T01:59:50.882Z,5.35
2019-03-26T02:03:54.498Z,4.80
2019-03-26T02:07:58.111Z,4.60
2019-03-26T02:12:02.132Z,6.17
2019-03-26T02:16:05.800Z,3.98
2019-03-26T02:20:09.568Z,4.83
2019-03-26T02:24:13.691Z,4.16
2019-03-26T02:28:17.305Z,4.80
2019-03-26T02:32:20.919Z,3.72
2019-03-26T02:36:24.636Z,4.62
2019-03-26T02:40:28.774Z,5.13
2019-03-26T02:44:32.480Z,3.90
2019-03-26T02:48:36.092Z,4.22
2019-03-26T02:52:39.704Z,4.42
2019-03-26T02:56:43.441Z,3.72
2019-03-26T03:00:47.038Z,3.05
2019-03-26T03:04:50.594Z,3.50
2019-03-26T03:08:54.160Z,4.03
2019-03-26T03:12:58.287Z,4.30
2019-03-26T03:17:01.850Z,2.83
2019-03-26T03:21:05.524Z,3.17
2019-03-26T03:25:09.332Z,3.65
2019-03-26T03:29:13.051Z,3.55
2019-03-26T03:33:17.407Z,2.92
2019-03-26T03:37:21.096Z,4.05
2019-03-26T03:41:24.813Z,4.12
2019-03-26T03:45:29.345Z,3.08
2019-03-26T03:49:33.376Z,3.00
2019-03-26T03:53:37.289Z,3.58
2019-03-26T03:57:41.625Z,5.78
2019-03-26T04:01:45.236Z,2.92
2019-03-26T04:05:48.850Z,2.58
2019-03-26T04:09:52.463Z,3.70
2019-03-26T04:13:56.084Z,2.52
2019-03-26T04:17:59.693Z,3.40
2019-03-26T04:22:03.408Z,3.20
2019-03-26T04:26:07.024Z,2.90
2019-03-26T04:30:11.358Z,2.38
2019-03-26T04:34:15.069Z,3.15
2019-03-26T04:38:18.742Z,3.47
2019-03-26T04:42:22.400Z,2.85
2019-03-26T04:46:25.968Z,3.30
2019-03-26T04:50:29.623Z,2.08
2019-03-26T04:54:33.186Z,2.77
2019-03-26T04:58:36.852Z,2.95
2019-03-26T05:02:40.467Z,3.02
2019-03-26T05:06:44.197Z,2.70
2019-03-26T05:10:49.193Z,4.10
2019-03-26T05:14:53.356Z,2.90
2019-03-26T05:18:57.076Z,2.77
2019-03-26T05:23:00.696Z,3.30
2019-03-26T05:27:04.400Z,3.52
2019-03-26T05:31:08.430Z,4.62
2019-03-26T05:35:13.269Z,5.37
2019-03-26T05:39:16.882Z,4.45
2019-03-26T05:43:20.499Z,3.05
2019-03-26T05:47:24.212Z,6.35
2019-03-26T05:51:27.827Z,5.37
2019-03-26T05:55:31.436Z,8.73
2019-03-26T05:59:35.050Z,12.28
2019-03-26T06:03:38.665Z,3.67
2019-03-26T06:07:42.395Z,3.55
2019-03-26T06:11:47.643Z,3.27
2019-03-26T06:15:51.365Z,3.42
2019-03-26T06:19:55.064Z,2.87
2019-03-26T06:23:58.781Z,3.05
2019-03-26T06:28:02.747Z,3.75
2019-03-26T06:32:07.029Z,4.37
2019-03-26T06:36:10.751Z,3.62
2019-03-26T06:40:16.109Z,4.37
2019-03-26T06:44:19.718Z,4.22
2019-03-26T06:48:24.868Z,2.98
2019-03-26T06:52:28.585Z,3.43
2019-03-26T06:56:32.199Z,3.00
2019-03-26T07:00:35.915Z,2.87
2019-03-26T07:04:48.215Z,4.22
2019-03-26T07:08:51.331Z,3.83
2019-03-26T07:12:54.958Z,3.10
2019-03-26T07:16:58.629Z,4.75
2019-03-26T07:21:02.272Z,3.37
2019-03-26T07:25:08.462Z,4.22
2019-03-26T07:29:12.065Z,3.10
2019-03-26T07:33:15.780Z,3.35
2019-03-26T07:37:19.495Z,2.83
2019-03-26T07:41:23.108Z,3.25
2019-03-26T07:45:26.830Z,3.27
2019-03-26T07:49:30.439Z,2.83
2019-03-26T07:53:34.088Z,2.75
2019-03-26T07:57:37.768Z,2.83
2019-03-26T08:01:41.382Z,3.98
2019-03-26T08:05:44.996Z,3.65
2019-03-26T08:09:48.721Z,3.02
2019-03-26T08:13:52.463Z,3.45
2019-03-26T08:17:56.148Z,2.35
2019-03-26T08:21:59.759Z,2.98
2019-03-26T08:26:03.582Z,2.20
2019-03-26T08:30:08.498Z,3.22
2019-03-26T08:34:12.236Z,2.90
2019-03-26T08:38:15.855Z,3.33
2019-03-26T08:42:19.507Z,2.92
2019-03-26T08:46:23.193Z,2.90
2019-03-26T08:50:26.900Z,2.67
2019-03-26T08:54:30.515Z,3.02
2019-03-26T08:58:34.137Z,3.98
2019-03-26T09:02:37.738Z,3.58
2019-03-26T09:06:41.327Z,2.90
2019-03-26T09:10:51.716Z,3.45
2019-03-26T09:14:50.323Z,3.17
2019-03-26T09:18:53.938Z,3.80
2019-03-26T09:22:57.551Z,2.60
2019-03-26T09:27:01.165Z,3.58
2019-03-26T09:31:04.795Z,2.75
2019-03-26T09:35:09.517Z,2.70
2019-03-26T09:39:14.255Z,3.33
2019-03-26T09:43:17.877Z,3.05
2019-03-26T09:47:21.498Z,3.02
2019-03-26T09:51:25.201Z,1.98
2019-03-26T09:55:28.818Z,1.60
2019-03-26T09:59:32.341Z,1.65
2019-03-26T10:03:35.936Z,2.02
2019-03-26T10:07:39.654Z,1.40
2019-03-26T10:11:43.380Z,1.70
2019-03-26T10:15:46.988Z,3.05
2019-03-26T10:19:50.708Z,1.57
2019-03-26T10:23:54.365Z,1.82
2019-03-26T10:27:58.035Z,2.40
2019-03-26T10:32:01.856Z,1.90
2019-03-26T10:36:05.672Z,2.87
2019-03-26T10:40:10.167Z,2.02
2019-03-26T10:44:13.862Z,1.52
2019-03-26T10:48:17.543Z,1.27
2019-03-26T10:52:21.154Z,1.08
2019-03-26T10:56:24.871Z,1.72
2019-03-26T11:00:28.693Z,1.00
2019-03-26T11:04:32.305Z,2.13
2019-03-26T11:08:35.861Z,1.32
2019-03-26T11:12:39.532Z,1.37
2019-03-26T11:16:43.574Z,1.15
2019-03-26T11:20:47.225Z,1.60
2019-03-26T11:24:50.986Z,1.17
2019-03-26T11:28:54.656Z,1.65
2019-03-26T11:32:58.417Z,1.50
2019-03-26T11:37:02.036Z,1.87
2019-03-26T11:41:05.748Z,1.50
2019-03-26T11:45:10.733Z,1.70
2019-03-26T11:49:14.411Z,1.67
2019-03-26T11:53:18.024Z,1.60
2019-03-26T11:57:21.744Z,1.17
2019-03-26T12:01:25.456Z,1.60
2019-03-26T12:05:29.173Z,1.50
2019-03-26T12:09:45.234Z,1.30
2019-03-26T12:13:38.087Z,1.70
2019-03-26T12:17:42.022Z,1.62
2019-03-26T12:21:45.779Z,1.52
2019-03-26T12:25:49.701Z,1.10
2019-03-26T12:29:53.419Z,1.22
2019-03-26T12:33:57.335Z,1.40
2019-03-26T12:38:02.703Z,1.57
2019-03-26T12:42:08.238Z,1.37
2019-03-26T12:46:11.876Z,1.62
2019-03-26T12:50:15.583Z,1.20
2019-03-26T12:54:19.196Z,0.98
2019-03-26T12:58:31.723Z,1.55
2019-03-26T13:02:28.170Z,1.35
2019-03-26T13:06:31.781Z,1.47
2019-03-26T13:10:35.701Z,1.22
2019-03-26T13:14:39.418Z,1.35
2019-03-26T13:18:43.032Z,1.07
2019-03-26T13:22:46.641Z,1.50
2019-03-26T13:26:51.195Z,1.30
2019-03-26T13:30:54.801Z,1.22
2019-03-26T13:34:58.411Z,1.25
2019-03-26T13:39:02.130Z,1.20
2019-03-26T13:43:05.839Z,1.52
2019-03-26T13:47:09.553Z,1.35
2019-03-26T13:51:13.175Z,1.98
2019-03-26T13:55:16.887Z,2.25
2019-03-26T13:59:20.503Z,1.55
2019-03-26T14:03:24.114Z,2.08
2019-03-26T14:07:27.728Z,2.55
2019-03-26T14:11:31.339Z,1.35
2019-03-26T14:15:35.057Z,1.52
2019-03-26T14:19:38.667Z,0.90
2019-03-26T14:23:42.285Z,1.22
2019-03-26T14:27:46.025Z,1.35
2019-03-26T14:31:49.721Z,1.57
2019-03-26T14:35:53.334Z,1.30
2019-03-26T14:39:56.979Z,1.52
2019-03-26T14:44:00.562Z,1.32
2019-03-26T14:48:04.484Z,1.50
2019-03-26T14:52:08.195Z,1.20
2019-03-26T14:56:11.809Z,1.40
2019-03-26T15:00:16.450Z,1.70
2019-03-26T15:04:20.065Z,1.30
2019-03-26T15:08:23.675Z,1.07
2019-03-26T15:12:27.338Z,1.43
2019-03-26T15:16:30.905Z,1.87
2019-03-26T15:20:34.722Z,1.53
2019-03-26T15:24:38.439Z,1.30
2019-03-26T15:28:42.055Z,1.40
2019-03-26T15:32:45.771Z,1.55
2019-03-26T15:36:49.485Z,1.30
2019-03-26T15:40:53.097Z,1.32
2019-03-26T15:44:56.813Z,2.10
2019-03-26T15:49:00.436Z,1.52
2019-03-26T15:53:04.045Z,1.90
2019-03-26T15:57:07.601Z,1.80
2019-03-26T16:01:11.271Z,1.50
2019-03-26T16:05:15.294Z,1.50
2019-03-26T16:09:18.912Z,2.22
2019-03-26T16:13:22.519Z,1.50
2019-03-26T16:17:26.137Z,2.15
2019-03-26T16:21:29.815Z,1.45
2019-03-26T16:25:33.582Z,1.17
2019-03-26T16:29:37.157Z,1.12
2019-03-26T16:33:40.799Z,0.98
2019-03-26T16:37:45.756Z,1.27
2019-03-26T16:41:49.768Z,1.07
2019-03-26T16:45:53.380Z,1.07
2019-03-26T16:49:56.913Z,1.35
2019-03-26T16:54:00.651Z,1.30
2019-03-26T16:58:04.328Z,0.90
2019-03-26T17:02:08.150Z,1.12
2019-03-26T17:06:12.367Z,0.82
2019-03-26T17:10:16.542Z,1.10
2019-03-26T17:14:20.660Z,1.12
2019-03-26T17:18:24.868Z,1.15
2019-03-26T17:22:29.113Z,0.70
2019-03-26T17:26:34.363Z,1.10
2019-03-26T17:30:37.941Z,1.40
2019-03-26T17:34:41.561Z,2.30
2019-03-26T17:38:45.282Z,2.05
2019-03-26T17:42:49.093Z,1.37
2019-03-26T17:46:53.337Z,1.47
2019-03-26T17:50:57.042Z,1.70
2019-03-26T17:55:01.115Z,1.92
2019-03-26T17:59:09.789Z,2.90
2019-03-26T18:03:25.638Z,1.72
2019-03-26T18:07:19.069Z,1.87
2019-03-26T18:11:22.704Z,2.65
2019-03-26T18:15:26.680Z,2.77
2019-03-26T18:19:31.802Z,2.83
2019-03-26T18:23:37.126Z,2.52
2019-03-26T18:27:41.313Z,3.12
2019-03-26T18:31:45.415Z,5.05
2019-03-26T18:35:49.676Z,7.87
2019-03-26T18:39:53.934Z,2.80
2019-03-26T18:43:57.688Z,3.50
2019-03-26T18:48:01.459Z,5.80
2019-03-26T18:52:05.279Z,6.97
2019-03-26T18:56:09.107Z,4.95
2019-03-26T19:00:15.495Z,4.80
2019-03-26T19:04:19.757Z,4.28
2019-03-26T19:08:25.071Z,83.20
2019-03-26T19:12:29.975Z,115.03
2019-03-26T19:16:33.820Z,75.30
2019-03-26T19:20:37.468Z,15.65
2019-03-26T19:24:41.048Z,8.40
2019-03-26T19:28:44.875Z,13.30
2019-03-26T19:32:48.721Z,38.83
2019-03-26T19:36:52.245Z,39.70
2019-03-26T19:40:56.014Z,39.00
2019-03-26T19:44:59.585Z,26.87
2019-03-26T19:49:03.649Z,16.15
2019-03-26T19:53:07.374Z,30.27
2019-03-26T19:57:10.983Z,18.50
2019-03-26T20:01:14.595Z,36.10
2019-03-26T20:05:18.419Z,26.40
2019-03-26T20:09:22.548Z,34.08
2019-03-26T20:13:26.162Z,10.85
2019-03-26T20:17:30.064Z,11.00
2019-03-26T20:21:33.698Z,10.38
2019-03-26T20:25:37.412Z,4.65
2019-03-26T20:29:41.025Z,6.22
2019-03-26T20:33:44.640Z,6.10
2019-03-26T20:37:48.353Z,4.17
2019-03-26T20:41:52.070Z,5.10
2019-03-26T20:45:55.686Z,3.98
2019-03-26T20:49:59.399Z,3.98
2019-03-26T20:54:03.015Z,3.70
2019-03-26T20:58:06.734Z,29.12
2019-03-26T21:02:10.447Z,12.15
2019-03-26T21:06:14.060Z,5.17
2019-03-26T21:10:17.879Z,4.95
2019-03-26T21:14:21.490Z,23.95
2019-03-26T21:18:26.011Z,12.75
2019-03-26T21:22:29.644Z,6.97
2019-03-26T21:26:33.358Z,7.70
2019-03-26T21:30:36.971Z,6.33
2019-03-26T21:34:40.840Z,9.40
2019-03-26T21:38:44.504Z,9.55
2019-03-26T21:42:48.117Z,7.50
2019-03-26T21:46:51.736Z,5.35
2019-03-26T21:50:55.860Z,4.28
2019-03-26T21:54:59.471Z,5.12
2019-03-26T21:59:03.084Z,4.33
2019-03-26T22:03:06.800Z,5.90
2019-03-26T22:07:10.413Z,4.40
2019-03-26T22:11:14.130Z,3.85
2019-03-26T22:15:18.405Z,4.90
2019-03-26T22:19:28.373Z,4.53
2019-03-26T22:23:27.330Z,4.80
2019-03-26T22:27:31.047Z,4.17
2019-03-26T22:31:34.624Z,4.02
2019-03-26T22:35:38.374Z,4.00
2019-03-26T22:39:41.937Z,5.03
2019-03-26T22:43:45.502Z,4.90
2019-03-26T22:47:49.216Z,4.70
2019-03-26T22:51:52.829Z,6.25
2019-03-26T22:55:56.439Z,4.70
2019-03-26T23:00:00.327Z,5.10
2019-03-26T23:04:04.078Z,4.92
2019-03-26T23:08:07.799Z,4.85
2019-03-26T23:12:11.513Z,5.33
2019-03-26T23:16:15.124Z,4.87
2019-03-26T23:20:18.947Z,5.00
2019-03-26T23:24:22.558Z,4.17
2019-03-26T23:28:26.273Z,4.78
2019-03-26T23:32:29.996Z,4.15
2019-03-26T23:36:33.607Z,4.37
2019-03-26T23:40:37.218Z,4.37
2019-03-26T23:44:40.829Z,4.85
2019-03-26T23:48:44.756Z,4.72
2019-03-26T23:52:48.370Z,5.65
2019-03-26T23:56:52.086Z,4.90
